sensor_id;sensor_type;location;lat;lon;timestamp;temperature;humidity
4651;DHT22;2338;49.602;8.722;2023-04-24T00:00:23;13.20;99.90
4651;DHT22;2338;49.602;8.722;2023-04-24T00:03:09;13.10;99.90
4651;DHT22;2338;49.602;8.722;2023-04-24T00:05:55;13.10;99.90
4651;DHT22;2338;49.602;8.722;2023-04-24T00:08:42;13.20;99.90
4651;DHT22;2338;49.602;8.722;2023-04-24T00:11:28;13.20;99.90
4651;DHT22;2338;49.602;8.722;2023-04-24T00:14:14;13.30;99.90
4651;DHT22;2338;49.602;8.722;2023-04-24T00:16:59;13.20;99.90
4651;DHT22;2338;49.602;8.722;2023-04-24T00:19:46;13.30;99.90
4651;DHT22;2338;49.602;8.722;2023-04-24T00:22:32;13.20;99.90
4651;DHT22;2338;49.602;8.722;2023-04-24T00:25:19;13.20;99.90
4651;DHT22;2338;49.602;8.722;2023-04-24T00:28:05;13.10;99.90
4651;DHT22;2338;49.602;8.722;2023-04-24T00:30:51;13.20;99.90
4651;DHT22;2338;49.602;8.722;2023-04-24T00:33:36;13.10;99.90
4651;DHT22;2338;49.602;8.722;2023-04-24T00:36:22;13.10;99.90
4651;DHT22;2338;49.602;8.722;2023-04-24T00:39:08;13.10;99.90
4651;DHT22;2338;49.602;8.722;2023-04-24T00:41:56;13.00;99.90
4651;DHT22;2338;49.602;8.722;2023-04-24T00:44:42;13.00;99.90
4651;DHT22;2338;49.602;8.722;2023-04-24T00:47:28;13.10;99.90
4651;DHT22;2338;49.602;8.722;2023-04-24T00:50:15;13.00;99.90
4651;DHT22;2338;49.602;8.722;2023-04-24T00:53:01;13.00;99.90
4651;DHT22;2338;49.602;8.722;2023-04-24T00:55:47;13.00;99.90
4651;DHT22;2338;49.602;8.722;2023-04-24T00:58:34;12.90;99.90
4651;DHT22;2338;49.602;8.722;2023-04-24T01:01:20;12.90;99.90
4651;DHT22;2338;49.602;8.722;2023-04-24T01:04:06;12.90;99.90
4651;DHT22;2338;49.602;8.722;2023-04-24T01:06:52;13.00;99.90
4651;DHT22;2338;49.602;8.722;2023-04-24T01:09:40;13.00;99.90
4651;DHT22;2338;49.602;8.722;2023-04-24T01:12:26;13.00;99.90
4651;DHT22;2338;49.602;8.722;2023-04-24T01:15:13;13.00;99.90
4651;DHT22;2338;49.602;8.722;2023-04-24T01:17:59;13.00;99.90
4651;DHT22;2338;49.602;8.722;2023-04-24T01:20:46;13.00;99.90
4651;DHT22;2338;49.602;8.722;2023-04-24T01:23:33;13.00;99.90
4651;DHT22;2338;49.602;8.722;2023-04-24T01:26:19;13.00;99.90
4651;DHT22;2338;49.602;8.722;2023-04-24T01:29:05;13.00;99.90
4651;DHT22;2338;49.602;8.722;2023-04-24T01:31:51;13.00;99.90
4651;DHT22;2338;49.602;8.722;2023-04-24T01:34:37;13.00;99.90
4651;DHT22;2338;49.602;8.722;2023-04-24T01:37:23;13.00;99.90
4651;DHT22;2338;49.602;8.722;2023-04-24T01:40:12;13.00;99.90
4651;DHT22;2338;49.602;8.722;2023-04-24T01:42:58;13.00;99.90
4651;DHT22;2338;49.602;8.722;2023-04-24T01:45:44;13.00;99.90
4651;DHT22;2338;49.602;8.722;2023-04-24T01:48:30;13.10;99.90
4651;DHT22;2338;49.602;8.722;2023-04-24T01:51:16;13.10;99.90
4651;DHT22;2338;49.602;8.722;2023-04-24T01:54:02;13.20;99.90
4651;DHT22;2338;49.602;8.722;2023-04-24T01:56:49;13.20;99.90
4651;DHT22;2338;49.602;8.722;2023-04-24T01:59:35;13.20;99.90
4651;DHT22;2338;49.602;8.722;2023-04-24T02:02:21;13.10;99.90
4651;DHT22;2338;49.602;8.722;2023-04-24T02:05:08;13.10;99.90
4651;DHT22;2338;49.602;8.722;2023-04-24T02:07:55;13.20;99.90
4651;DHT22;2338;49.602;8.722;2023-04-24T02:10:41;13.20;99.90
4651;DHT22;2338;49.602;8.722;2023-04-24T02:13:28;13.10;99.90
4651;DHT22;2338;49.602;8.722;2023-04-24T02:16:14;13.00;99.90
4651;DHT22;2338;49.602;8.722;2023-04-24T02:18:59;13.00;99.90
4651;DHT22;2338;49.602;8.722;2023-04-24T02:21:45;13.00;99.90
4651;DHT22;2338;49.602;8.722;2023-04-24T02:24:31;13.00;99.90
4651;DHT22;2338;49.602;8.722;2023-04-24T02:27:17;13.00;99.90
4651;DHT22;2338;49.602;8.722;2023-04-24T02:30:06;13.00;99.90
4651;DHT22;2338;49.602;8.722;2023-04-24T02:32:53;13.00;99.90
4651;DHT22;2338;49.602;8.722;2023-04-24T02:35:39;13.00;99.90
4651;DHT22;2338;49.602;8.722;2023-04-24T02:38:25;12.90;99.90
4651;DHT22;2338;49.602;8.722;2023-04-24T02:41:10;12.90;99.90
4651;DHT22;2338;49.602;8.722;2023-04-24T02:43:56;12.90;99.90
4651;DHT22;2338;49.602;8.722;2023-04-24T02:46:43;12.90;99.90
4651;DHT22;2338;49.602;8.722;2023-04-24T02:49:28;12.90;99.90
4651;DHT22;2338;49.602;8.722;2023-04-24T02:52:14;12.80;99.90
4651;DHT22;2338;49.602;8.722;2023-04-24T02:55:00;12.80;99.90
4651;DHT22;2338;49.602;8.722;2023-04-24T02:57:46;12.70;99.90
4651;DHT22;2338;49.602;8.722;2023-04-24T03:00:32;12.50;99.90
4651;DHT22;2338;49.602;8.722;2023-04-24T03:03:19;12.50;99.90
4651;DHT22;2338;49.602;8.722;2023-04-24T03:06:04;12.40;99.90
4651;DHT22;2338;49.602;8.722;2023-04-24T03:08:52;12.30;99.90
4651;DHT22;2338;49.602;8.722;2023-04-24T03:11:38;12.20;99.90
4651;DHT22;2338;49.602;8.722;2023-04-24T03:14:24;12.10;99.90
4651;DHT22;2338;49.602;8.722;2023-04-24T03:17:10;12.10;99.90
4651;DHT22;2338;49.602;8.722;2023-04-24T03:19:57;12.00;99.90
4651;DHT22;2338;49.602;8.722;2023-04-24T03:22:43;12.00;99.90
4651;DHT22;2338;49.602;8.722;2023-04-24T03:25:29;11.90;99.90
4651;DHT22;2338;49.602;8.722;2023-04-24T03:28:14;11.90;99.90
4651;DHT22;2338;49.602;8.722;2023-04-24T03:31:00;11.90;99.90
4651;DHT22;2338;49.602;8.722;2023-04-24T03:33:46;11.90;99.90
4651;DHT22;2338;49.602;8.722;2023-04-24T03:36:33;11.90;99.90
4651;DHT22;2338;49.602;8.722;2023-04-24T03:39:19;12.00;99.90
4651;DHT22;2338;49.602;8.722;2023-04-24T03:42:05;12.00;99.90
4651;DHT22;2338;49.602;8.722;2023-04-24T03:44:50;12.00;99.90
4651;DHT22;2338;49.602;8.722;2023-04-24T03:47:36;12.00;99.90
4651;DHT22;2338;49.602;8.722;2023-04-24T03:50:22;12.00;99.90
4651;DHT22;2338;49.602;8.722;2023-04-24T03:53:09;12.00;99.90
4651;DHT22;2338;49.602;8.722;2023-04-24T03:55:54;12.10;99.90
4651;DHT22;2338;49.602;8.722;2023-04-24T03:58:40;12.10;99.90
4651;DHT22;2338;49.602;8.722;2023-04-24T04:01:26;12.10;99.90
4651;DHT22;2338;49.602;8.722;2023-04-24T04:04:12;12.00;99.90
4651;DHT22;2338;49.602;8.722;2023-04-24T04:06:57;12.00;99.90
4651;DHT22;2338;49.602;8.722;2023-04-24T04:09:47;12.00;99.90
4651;DHT22;2338;49.602;8.722;2023-04-24T04:12:32;12.00;99.90
4651;DHT22;2338;49.602;8.722;2023-04-24T04:15:18;12.00;99.90
4651;DHT22;2338;49.602;8.722;2023-04-24T04:18:03;11.90;99.90
4651;DHT22;2338;49.602;8.722;2023-04-24T04:20:49;11.90;99.90
4651;DHT22;2338;49.602;8.722;2023-04-24T04:23:35;11.90;99.90
4651;DHT22;2338;49.602;8.722;2023-04-24T04:26:22;11.90;99.90
4651;DHT22;2338;49.602;8.722;2023-04-24T04:29:09;11.80;99.90
4651;DHT22;2338;49.602;8.722;2023-04-24T04:31:56;11.60;99.90
4651;DHT22;2338;49.602;8.722;2023-04-24T04:34:42;11.50;99.90
4651;DHT22;2338;49.602;8.722;2023-04-24T04:37:29;11.40;99.90
4651;DHT22;2338;49.602;8.722;2023-04-24T04:40:15;11.30;99.90
4651;DHT22;2338;49.602;8.722;2023-04-24T04:43:02;11.20;99.90
4651;DHT22;2338;49.602;8.722;2023-04-24T04:45:47;11.10;99.90
4651;DHT22;2338;49.602;8.722;2023-04-24T04:48:33;11.10;99.90
4651;DHT22;2338;49.602;8.722;2023-04-24T04:51:19;11.10;99.90
4651;DHT22;2338;49.602;8.722;2023-04-24T04:54:05;11.00;99.90
4651;DHT22;2338;49.602;8.722;2023-04-24T04:56:50;11.00;99.90
4651;DHT22;2338;49.602;8.722;2023-04-24T04:59:37;11.00;99.90
4651;DHT22;2338;49.602;8.722;2023-04-24T05:02:23;11.00;99.90
4651;DHT22;2338;49.602;8.722;2023-04-24T05:05:08;11.10;99.90
4651;DHT22;2338;49.602;8.722;2023-04-24T05:07:54;11.10;99.90
4651;DHT22;2338;49.602;8.722;2023-04-24T05:10:40;11.10;99.90
4651;DHT22;2338;49.602;8.722;2023-04-24T05:13:26;11.10;99.90
4651;DHT22;2338;49.602;8.722;2023-04-24T05:16:13;11.20;99.90
4651;DHT22;2338;49.602;8.722;2023-04-24T05:18:59;11.30;99.90
4651;DHT22;2338;49.602;8.722;2023-04-24T05:21:44;11.40;99.90
4651;DHT22;2338;49.602;8.722;2023-04-24T05:24:30;11.50;99.90
4651;DHT22;2338;49.602;8.722;2023-04-24T05:27:16;11.60;99.90
4651;DHT22;2338;49.602;8.722;2023-04-24T05:30:02;11.60;99.90
4651;DHT22;2338;49.602;8.722;2023-04-24T05:32:50;11.70;99.90
4651;DHT22;2338;49.602;8.722;2023-04-24T05:35:35;11.60;99.90
4651;DHT22;2338;49.602;8.722;2023-04-24T05:38:21;11.70;99.90
4651;DHT22;2338;49.602;8.722;2023-04-24T05:41:06;11.80;99.90
4651;DHT22;2338;49.602;8.722;2023-04-24T05:43:52;11.90;99.90
4651;DHT22;2338;49.602;8.722;2023-04-24T05:46:38;11.80;99.90
4651;DHT22;2338;49.602;8.722;2023-04-24T05:49:25;11.50;99.90
4651;DHT22;2338;49.602;8.722;2023-04-24T05:52:10;11.50;99.90
4651;DHT22;2338;49.602;8.722;2023-04-24T05:54:56;11.60;99.90
4651;DHT22;2338;49.602;8.722;2023-04-24T05:57:42;11.60;99.90
4651;DHT22;2338;49.602;8.722;2023-04-24T06:00:28;11.70;99.90
4651;DHT22;2338;49.602;8.722;2023-04-24T06:03:14;11.70;99.90
4651;DHT22;2338;49.602;8.722;2023-04-24T06:06:01;11.80;99.90
4651;DHT22;2338;49.602;8.722;2023-04-24T06:08:46;11.80;99.90
4651;DHT22;2338;49.602;8.722;2023-04-24T06:11:32;11.90;99.90
4651;DHT22;2338;49.602;8.722;2023-04-24T06:14:18;12.00;99.90
4651;DHT22;2338;49.602;8.722;2023-04-24T06:17:04;12.00;99.90
4651;DHT22;2338;49.602;8.722;2023-04-24T06:19:50;12.10;99.90
4651;DHT22;2338;49.602;8.722;2023-04-24T06:22:37;12.20;99.90
4651;DHT22;2338;49.602;8.722;2023-04-24T06:25:25;12.20;99.90
4651;DHT22;2338;49.602;8.722;2023-04-24T06:28:11;12.20;99.90
4651;DHT22;2338;49.602;8.722;2023-04-24T06:30:56;12.20;99.90
4651;DHT22;2338;49.602;8.722;2023-04-24T06:33:42;12.10;99.90
4651;DHT22;2338;49.602;8.722;2023-04-24T06:36:28;12.00;99.90
4651;DHT22;2338;49.602;8.722;2023-04-24T06:39:16;12.00;99.90
4651;DHT22;2338;49.602;8.722;2023-04-24T06:42:01;11.90;99.90
4651;DHT22;2338;49.602;8.722;2023-04-24T06:44:47;11.70;99.90
4651;DHT22;2338;49.602;8.722;2023-04-24T06:47:32;11.70;99.90
4651;DHT22;2338;49.602;8.722;2023-04-24T06:50:18;11.60;99.90
4651;DHT22;2338;49.602;8.722;2023-04-24T06:53:04;11.60;99.90
4651;DHT22;2338;49.602;8.722;2023-04-24T06:55:51;11.60;99.90
4651;DHT22;2338;49.602;8.722;2023-04-24T06:58:36;11.60;99.90
4651;DHT22;2338;49.602;8.722;2023-04-24T07:01:22;11.60;99.90
4651;DHT22;2338;49.602;8.722;2023-04-24T07:04:08;11.60;99.90
4651;DHT22;2338;49.602;8.722;2023-04-24T07:06:54;11.50;99.90
4651;DHT22;2338;49.602;8.722;2023-04-24T07:09:40;11.50;99.90
4651;DHT22;2338;49.602;8.722;2023-04-24T07:12:27;11.50;99.90
4651;DHT22;2338;49.602;8.722;2023-04-24T07:15:13;11.50;99.90
4651;DHT22;2338;49.602;8.722;2023-04-24T07:17:59;11.40;99.90
4651;DHT22;2338;49.602;8.722;2023-04-24T07:20:45;11.30;99.90
4651;DHT22;2338;49.602;8.722;2023-04-24T07:23:30;11.40;99.90
4651;DHT22;2338;49.602;8.722;2023-04-24T07:26:16;11.40;99.90
4651;DHT22;2338;49.602;8.722;2023-04-24T07:29:03;11.40;99.90
4651;DHT22;2338;49.602;8.722;2023-04-24T07:31:49;11.40;99.90
4651;DHT22;2338;49.602;8.722;2023-04-24T07:34:35;11.50;99.90
4651;DHT22;2338;49.602;8.722;2023-04-24T07:37:20;11.40;99.90
4651;DHT22;2338;49.602;8.722;2023-04-24T07:40:07;11.50;99.90
4651;DHT22;2338;49.602;8.722;2023-04-24T07:42:52;11.60;99.90
4651;DHT22;2338;49.602;8.722;2023-04-24T07:45:40;11.60;99.90
4651;DHT22;2338;49.602;8.722;2023-04-24T07:48:26;11.70;99.90
4651;DHT22;2338;49.602;8.722;2023-04-24T07:51:11;11.70;99.90
4651;DHT22;2338;49.602;8.722;2023-04-24T07:53:57;11.80;99.90
4651;DHT22;2338;49.602;8.722;2023-04-24T07:56:43;11.80;99.90
4651;DHT22;2338;49.602;8.722;2023-04-24T07:59:29;11.90;99.90
4651;DHT22;2338;49.602;8.722;2023-04-24T08:02:16;11.80;99.90
4651;DHT22;2338;49.602;8.722;2023-04-24T08:05:02;11.90;99.90
4651;DHT22;2338;49.602;8.722;2023-04-24T08:07:48;11.80;99.90
4651;DHT22;2338;49.602;8.722;2023-04-24T08:10:34;11.80;99.90
4651;DHT22;2338;49.602;8.722;2023-04-24T08:13:20;11.80;99.90
4651;DHT22;2338;49.602;8.722;2023-04-24T08:16:05;11.90;99.90
4651;DHT22;2338;49.602;8.722;2023-04-24T08:18:53;11.90;99.90
4651;DHT22;2338;49.602;8.722;2023-04-24T08:21:39;11.90;99.90
4651;DHT22;2338;49.602;8.722;2023-04-24T08:24:24;12.00;99.90
4651;DHT22;2338;49.602;8.722;2023-04-24T08:27:10;12.00;99.90
4651;DHT22;2338;49.602;8.722;2023-04-24T08:29:57;12.00;99.90
4651;DHT22;2338;49.602;8.722;2023-04-24T08:32:43;12.00;99.90
4651;DHT22;2338;49.602;8.722;2023-04-24T08:35:30;12.00;99.90
4651;DHT22;2338;49.602;8.722;2023-04-24T08:38:16;11.90;99.90
4651;DHT22;2338;49.602;8.722;2023-04-24T08:41:02;11.90;99.90
4651;DHT22;2338;49.602;8.722;2023-04-24T08:43:48;11.90;99.90
4651;DHT22;2338;49.602;8.722;2023-04-24T08:46:35;12.00;99.90
4651;DHT22;2338;49.602;8.722;2023-04-24T08:49:21;12.20;99.90
4651;DHT22;2338;49.602;8.722;2023-04-24T08:52:10;12.30;99.90
4651;DHT22;2338;49.602;8.722;2023-04-24T08:54:58;12.30;99.90
4651;DHT22;2338;49.602;8.722;2023-04-24T08:57:45;12.40;99.90
4651;DHT22;2338;49.602;8.722;2023-04-24T09:00:35;12.50;99.90
4651;DHT22;2338;49.602;8.722;2023-04-24T09:03:21;12.50;95.70
4651;DHT22;2338;49.602;8.722;2023-04-24T09:06:08;12.60;94.20
4651;DHT22;2338;49.602;8.722;2023-04-24T09:08:57;12.60;92.50
4651;DHT22;2338;49.602;8.722;2023-04-24T09:11:45;12.60;94.00
4651;DHT22;2338;49.602;8.722;2023-04-24T09:14:31;12.50;93.10
4651;DHT22;2338;49.602;8.722;2023-04-24T09:17:20;12.50;95.10
4651;DHT22;2338;49.602;8.722;2023-04-24T09:20:07;12.40;93.40
4651;DHT22;2338;49.602;8.722;2023-04-24T09:22:54;12.40;93.70
4651;DHT22;2338;49.602;8.722;2023-04-24T09:25:41;12.40;94.00
4651;DHT22;2338;49.602;8.722;2023-04-24T09:28:30;12.40;93.40
4651;DHT22;2338;49.602;8.722;2023-04-24T09:31:19;12.30;92.10
4651;DHT22;2338;49.602;8.722;2023-04-24T09:34:06;12.40;93.40
4651;DHT22;2338;49.602;8.722;2023-04-24T09:36:52;12.40;94.10
4651;DHT22;2338;49.602;8.722;2023-04-24T09:39:38;12.40;93.50
4651;DHT22;2338;49.602;8.722;2023-04-24T09:42:25;12.40;93.80
4651;DHT22;2338;49.602;8.722;2023-04-24T09:45:14;12.40;95.20
4651;DHT22;2338;49.602;8.722;2023-04-24T09:48:00;12.40;96.10
4651;DHT22;2338;49.602;8.722;2023-04-24T09:50:46;12.30;96.10
4651;DHT22;2338;49.602;8.722;2023-04-24T09:53:32;12.20;95.90
4651;DHT22;2338;49.602;8.722;2023-04-24T09:56:18;12.10;96.90
4651;DHT22;2338;49.602;8.722;2023-04-24T09:59:06;12.00;98.00
4651;DHT22;2338;49.602;8.722;2023-04-24T10:01:52;12.10;97.90
4651;DHT22;2338;49.602;8.722;2023-04-24T10:04:38;12.00;96.10
4651;DHT22;2338;49.602;8.722;2023-04-24T10:07:26;12.00;98.00
4651;DHT22;2338;49.602;8.722;2023-04-24T10:10:11;12.00;96.60
4651;DHT22;2338;49.602;8.722;2023-04-24T10:12:57;12.00;97.20
4651;DHT22;2338;49.602;8.722;2023-04-24T10:15:46;12.00;99.20
4651;DHT22;2338;49.602;8.722;2023-04-24T10:18:33;12.00;98.50
4651;DHT22;2338;49.602;8.722;2023-04-24T10:21:20;12.00;96.60
4651;DHT22;2338;49.602;8.722;2023-04-24T10:24:06;11.90;98.00
4651;DHT22;2338;49.602;8.722;2023-04-24T10:26:52;11.80;99.90
4651;DHT22;2338;49.602;8.722;2023-04-24T10:29:39;11.80;99.90
4651;DHT22;2338;49.602;8.722;2023-04-24T10:32:26;11.80;99.90
4651;DHT22;2338;49.602;8.722;2023-04-24T10:35:13;11.80;99.90
4651;DHT22;2338;49.602;8.722;2023-04-24T10:38:03;11.90;99.90
4651;DHT22;2338;49.602;8.722;2023-04-24T10:40:51;12.00;99.90
4651;DHT22;2338;49.602;8.722;2023-04-24T10:43:36;12.20;99.90
4651;DHT22;2338;49.602;8.722;2023-04-24T10:46:21;12.20;99.90
4651;DHT22;2338;49.602;8.722;2023-04-24T10:49:09;12.30;99.90
4651;DHT22;2338;49.602;8.722;2023-04-24T10:52:00;12.30;98.60
4651;DHT22;2338;49.602;8.722;2023-04-24T10:54:47;12.30;97.80
4651;DHT22;2338;49.602;8.722;2023-04-24T10:57:33;12.30;95.60
4651;DHT22;2338;49.602;8.722;2023-04-24T11:00:20;12.30;95.80
4651;DHT22;2338;49.602;8.722;2023-04-24T11:03:09;12.20;94.90
4651;DHT22;2338;49.602;8.722;2023-04-24T11:06:09;12.10;95.50
4651;DHT22;2338;49.602;8.722;2023-04-24T11:09:01;12.10;96.40
4651;DHT22;2338;49.602;8.722;2023-04-24T11:11:48;12.10;97.10
4651;DHT22;2338;49.602;8.722;2023-04-24T11:15:00;12.10;96.90
4651;DHT22;2338;49.602;8.722;2023-04-24T11:17:46;12.00;98.00
4651;DHT22;2338;49.602;8.722;2023-04-24T11:20:31;12.10;98.80
4651;DHT22;2338;49.602;8.722;2023-04-24T11:23:18;12.10;98.20
4651;DHT22;2338;49.602;8.722;2023-04-24T11:26:11;12.20;98.70
4651;DHT22;2338;49.602;8.722;2023-04-24T11:29:06;12.20;97.80
4651;DHT22;2338;49.602;8.722;2023-04-24T11:31:53;12.10;97.90
4651;DHT22;2338;49.602;8.722;2023-04-24T11:34:38;12.10;97.90
4651;DHT22;2338;49.602;8.722;2023-04-24T11:37:26;12.00;97.80
4651;DHT22;2338;49.602;8.722;2023-04-24T11:40:15;12.00;99.00
4651;DHT22;2338;49.602;8.722;2023-04-24T11:43:04;12.00;99.60
4651;DHT22;2338;49.602;8.722;2023-04-24T11:45:50;12.00;99.60
4651;DHT22;2338;49.602;8.722;2023-04-24T11:48:35;12.00;99.90
4651;DHT22;2338;49.602;8.722;2023-04-24T11:51:24;12.10;99.90
4651;DHT22;2338;49.602;8.722;2023-04-24T11:54:11;12.10;99.70
4651;DHT22;2338;49.602;8.722;2023-04-24T11:56:57;12.20;99.60
4651;DHT22;2338;49.602;8.722;2023-04-24T11:59:43;12.20;97.70
4651;DHT22;2338;49.602;8.722;2023-04-24T12:02:29;12.30;98.60
4651;DHT22;2338;49.602;8.722;2023-04-24T12:05:19;12.30;98.90
4651;DHT22;2338;49.602;8.722;2023-04-24T12:08:06;12.30;96.80
4651;DHT22;2338;49.602;8.722;2023-04-24T12:10:51;12.40;96.00
4651;DHT22;2338;49.602;8.722;2023-04-24T12:13:38;12.60;95.60
4651;DHT22;2338;49.602;8.722;2023-04-24T12:16:26;12.80;93.90
4651;DHT22;2338;49.602;8.722;2023-04-24T12:19:11;13.20;94.60
4651;DHT22;2338;49.602;8.722;2023-04-24T12:22:01;13.60;92.60
4651;DHT22;2338;49.602;8.722;2023-04-24T12:24:58;13.70;78.90
4651;DHT22;2338;49.602;8.722;2023-04-24T12:27:45;13.60;80.30
4651;DHT22;2338;49.602;8.722;2023-04-24T12:30:33;13.60;79.50
4651;DHT22;2338;49.602;8.722;2023-04-24T12:33:20;13.50;80.00
4651;DHT22;2338;49.602;8.722;2023-04-24T12:36:06;13.40;78.50
4651;DHT22;2338;49.602;8.722;2023-04-24T12:38:56;13.30;76.30
4651;DHT22;2338;49.602;8.722;2023-04-24T12:41:50;13.20;78.00
4651;DHT22;2338;49.602;8.722;2023-04-24T12:44:36;13.20;76.60
4651;DHT22;2338;49.602;8.722;2023-04-24T12:47:24;13.00;75.40
4651;DHT22;2338;49.602;8.722;2023-04-24T12:50:10;12.90;75.90
4651;DHT22;2338;49.602;8.722;2023-04-24T12:52:57;12.90;77.80
4651;DHT22;2338;49.602;8.722;2023-04-24T12:55:43;12.80;78.50
4651;DHT22;2338;49.602;8.722;2023-04-24T12:58:29;12.80;77.70
4651;DHT22;2338;49.602;8.722;2023-04-24T13:01:15;12.80;78.00
4651;DHT22;2338;49.602;8.722;2023-04-24T13:04:02;12.80;80.10
4651;DHT22;2338;49.602;8.722;2023-04-24T13:06:48;12.90;78.70
4651;DHT22;2338;49.602;8.722;2023-04-24T13:09:34;12.90;79.30
4651;DHT22;2338;49.602;8.722;2023-04-24T13:12:20;13.10;79.90
4651;DHT22;2338;49.602;8.722;2023-04-24T13:15:08;13.00;79.10
4651;DHT22;2338;49.602;8.722;2023-04-24T13:17:54;13.10;80.00
4651;DHT22;2338;49.602;8.722;2023-04-24T13:20:41;13.10;79.00
4651;DHT22;2338;49.602;8.722;2023-04-24T13:23:26;13.10;79.20
4651;DHT22;2338;49.602;8.722;2023-04-24T13:26:12;13.10;78.50
4651;DHT22;2338;49.602;8.722;2023-04-24T13:28:58;13.10;78.40
4651;DHT22;2338;49.602;8.722;2023-04-24T13:31:43;13.00;78.80
4651;DHT22;2338;49.602;8.722;2023-04-24T13:34:29;12.90;79.10
4651;DHT22;2338;49.602;8.722;2023-04-24T13:37:16;12.90;80.70
4651;DHT22;2338;49.602;8.722;2023-04-24T13:40:02;13.00;81.50
4651;DHT22;2338;49.602;8.722;2023-04-24T13:42:50;13.00;75.00
4651;DHT22;2338;49.602;8.722;2023-04-24T13:45:35;13.10;75.40
4651;DHT22;2338;49.602;8.722;2023-04-24T13:48:22;13.20;75.70
4651;DHT22;2338;49.602;8.722;2023-04-24T13:51:07;13.20;74.40
4651;DHT22;2338;49.602;8.722;2023-04-24T13:53:54;13.20;74.10
4651;DHT22;2338;49.602;8.722;2023-04-24T13:56:40;13.30;76.20
4651;DHT22;2338;49.602;8.722;2023-04-24T13:59:26;13.30;76.30
4651;DHT22;2338;49.602;8.722;2023-04-24T14:02:11;13.30;72.40
4651;DHT22;2338;49.602;8.722;2023-04-24T14:04:57;13.20;73.80
4651;DHT22;2338;49.602;8.722;2023-04-24T14:07:43;13.30;74.80
4651;DHT22;2338;49.602;8.722;2023-04-24T14:10:30;13.20;73.80
4651;DHT22;2338;49.602;8.722;2023-04-24T14:13:15;13.20;69.30
4651;DHT22;2338;49.602;8.722;2023-04-24T14:16:01;13.20;70.60
4651;DHT22;2338;49.602;8.722;2023-04-24T14:18:47;13.10;70.10
4651;DHT22;2338;49.602;8.722;2023-04-24T14:21:33;13.00;68.10
4651;DHT22;2338;49.602;8.722;2023-04-24T14:24:18;13.00;68.90
4651;DHT22;2338;49.602;8.722;2023-04-24T14:27:05;12.90;70.50
4651;DHT22;2338;49.602;8.722;2023-04-24T14:29:51;12.90;69.10
4651;DHT22;2338;49.602;8.722;2023-04-24T14:32:38;13.00;70.00
4651;DHT22;2338;49.602;8.722;2023-04-24T14:35:23;13.00;71.20
4651;DHT22;2338;49.602;8.722;2023-04-24T14:38:10;13.00;69.60
4651;DHT22;2338;49.602;8.722;2023-04-24T14:40:56;13.00;70.00
4651;DHT22;2338;49.602;8.722;2023-04-24T14:43:43;13.00;69.80
4651;DHT22;2338;49.602;8.722;2023-04-24T14:46:28;13.00;70.70
4651;DHT22;2338;49.602;8.722;2023-04-24T14:49:14;13.10;70.90
4651;DHT22;2338;49.602;8.722;2023-04-24T14:52:00;13.20;70.80
4651;DHT22;2338;49.602;8.722;2023-04-24T14:54:47;13.20;69.10
4651;DHT22;2338;49.602;8.722;2023-04-24T14:57:32;13.30;72.70
4651;DHT22;2338;49.602;8.722;2023-04-24T15:00:21;13.40;69.20
4651;DHT22;2338;49.602;8.722;2023-04-24T15:03:07;13.30;67.60
4651;DHT22;2338;49.602;8.722;2023-04-24T15:05:53;13.30;69.70
4651;DHT22;2338;49.602;8.722;2023-04-24T15:08:38;13.40;70.20
4651;DHT22;2338;49.602;8.722;2023-04-24T15:11:24;13.40;69.80
4651;DHT22;2338;49.602;8.722;2023-04-24T15:14:10;13.30;68.70
4651;DHT22;2338;49.602;8.722;2023-04-24T15:16:57;13.30;69.10
4651;DHT22;2338;49.602;8.722;2023-04-24T15:19:43;13.40;71.20
4651;DHT22;2338;49.602;8.722;2023-04-24T15:22:29;13.40;69.00
4651;DHT22;2338;49.602;8.722;2023-04-24T15:25:14;13.50;67.70
4651;DHT22;2338;49.602;8.722;2023-04-24T15:28:00;13.50;69.20
4651;DHT22;2338;49.602;8.722;2023-04-24T15:30:46;13.60;67.40
4651;DHT22;2338;49.602;8.722;2023-04-24T15:33:33;13.60;68.30
4651;DHT22;2338;49.602;8.722;2023-04-24T15:36:18;13.60;68.70
4651;DHT22;2338;49.602;8.722;2023-04-24T15:39:05;13.50;70.80
4651;DHT22;2338;49.602;8.722;2023-04-24T15:41:51;13.50;72.00
4651;DHT22;2338;49.602;8.722;2023-04-24T15:44:37;13.50;74.00
4651;DHT22;2338;49.602;8.722;2023-04-24T15:47:22;13.60;75.90
4651;DHT22;2338;49.602;8.722;2023-04-24T15:50:11;13.70;75.00
4651;DHT22;2338;49.602;8.722;2023-04-24T15:52:58;14.00;77.30
4651;DHT22;2338;49.602;8.722;2023-04-24T15:55:44;14.10;72.50
4651;DHT22;2338;49.602;8.722;2023-04-24T15:58:29;14.20;72.40
4651;DHT22;2338;49.602;8.722;2023-04-24T16:01:15;14.20;73.00
4651;DHT22;2338;49.602;8.722;2023-04-24T16:04:00;14.30;70.80
4651;DHT22;2338;49.602;8.722;2023-04-24T16:06:48;14.40;70.00
4651;DHT22;2338;49.602;8.722;2023-04-24T16:09:33;14.40;67.80
4651;DHT22;2338;49.602;8.722;2023-04-24T16:12:19;14.30;69.60
4651;DHT22;2338;49.602;8.722;2023-04-24T16:15:05;14.10;69.80
4651;DHT22;2338;49.602;8.722;2023-04-24T16:17:51;14.00;68.60
4651;DHT22;2338;49.602;8.722;2023-04-24T16:20:37;14.00;69.70
4651;DHT22;2338;49.602;8.722;2023-04-24T16:23:24;14.00;69.70
4651;DHT22;2338;49.602;8.722;2023-04-24T16:26:09;13.90;69.60
4651;DHT22;2338;49.602;8.722;2023-04-24T16:28:57;13.90;71.60
4651;DHT22;2338;49.602;8.722;2023-04-24T16:31:42;13.80;74.80
4651;DHT22;2338;49.602;8.722;2023-04-24T16:34:28;13.60;73.10
4651;DHT22;2338;49.602;8.722;2023-04-24T16:37:14;13.50;73.60
4651;DHT22;2338;49.602;8.722;2023-04-24T16:40:02;13.50;73.20
4651;DHT22;2338;49.602;8.722;2023-04-24T16:42:53;13.50;74.40
4651;DHT22;2338;49.602;8.722;2023-04-24T16:45:39;13.40;72.40
4651;DHT22;2338;49.602;8.722;2023-04-24T16:48:25;13.40;73.70
4651;DHT22;2338;49.602;8.722;2023-04-24T16:51:10;13.40;73.60
4651;DHT22;2338;49.602;8.722;2023-04-24T16:53:56;13.30;75.50
4651;DHT22;2338;49.602;8.722;2023-04-24T16:56:43;13.30;75.50
4651;DHT22;2338;49.602;8.722;2023-04-24T16:59:29;13.40;77.10
4651;DHT22;2338;49.602;8.722;2023-04-24T17:02:16;13.50;74.50
4651;DHT22;2338;49.602;8.722;2023-04-24T17:05:03;13.50;74.70
4651;DHT22;2338;49.602;8.722;2023-04-24T17:07:49;13.50;74.70
4651;DHT22;2338;49.602;8.722;2023-04-24T17:10:34;13.50;75.20
4651;DHT22;2338;49.602;8.722;2023-04-24T17:13:21;13.50;76.90
4651;DHT22;2338;49.602;8.722;2023-04-24T17:16:07;13.40;76.40
4651;DHT22;2338;49.602;8.722;2023-04-24T17:18:53;13.30;76.10
4651;DHT22;2338;49.602;8.722;2023-04-24T17:21:39;13.20;74.80
4651;DHT22;2338;49.602;8.722;2023-04-24T17:24:24;13.20;76.20
4651;DHT22;2338;49.602;8.722;2023-04-24T17:27:10;13.10;77.10
4651;DHT22;2338;49.602;8.722;2023-04-24T17:29:59;13.00;75.90
4651;DHT22;2338;49.602;8.722;2023-04-24T17:32:44;13.00;77.90
4651;DHT22;2338;49.602;8.722;2023-04-24T17:35:30;13.00;77.10
4651;DHT22;2338;49.602;8.722;2023-04-24T17:38:16;12.90;75.90
4651;DHT22;2338;49.602;8.722;2023-04-24T17:41:02;12.90;75.50
4651;DHT22;2338;49.602;8.722;2023-04-24T17:43:47;12.80;76.50
4651;DHT22;2338;49.602;8.722;2023-04-24T17:46:34;12.80;78.00
4651;DHT22;2338;49.602;8.722;2023-04-24T17:49:20;12.80;80.50
4651;DHT22;2338;49.602;8.722;2023-04-24T17:52:05;12.70;78.90
4651;DHT22;2338;49.602;8.722;2023-04-24T17:54:51;12.60;77.90
4651;DHT22;2338;49.602;8.722;2023-04-24T17:57:37;12.70;79.00
4651;DHT22;2338;49.602;8.722;2023-04-24T18:00:22;12.60;81.50
4651;DHT22;2338;49.602;8.722;2023-04-24T18:03:09;12.60;81.40
4651;DHT22;2338;49.602;8.722;2023-04-24T18:05:55;12.60;80.50